Terminal Aerodrome Forecast
Issued by NWS Charleston, WV

Current Version | Previous Version | Text Only | Print | Product List | Glossary Off
Versions: 1 2 3 4 5 6 7 8 9 10 11 12 13 14 15 16 17 18 19 20 21 22 23 24 25

000
FTUS41 KRLX 202339
TAFHTS
TAF
KHTS 202339Z 2100/2124 23006KT P6SM SCT060
     FM210400 22005KT P6SM VCTS BKN050CB
     FM210600 22005KT 3SM TSRA BKN050CB
     FM210900 24005KT P6SM SHRA BKN025
     FM211200 27005KT P6SM VCSH OVC015
     FM211700 29006KT P6SM BKN040=

USA.gov is the U.S. government's official web portal to all federal, state and local government web resources and services.